Time;durP1;ratioP1;P1;durP2;ratioP2;P2;SDS_P1;SDS_P2;PMS_P1;PMS_P2;Temp;Humidity;BMP_temperature;BMP_pressure;BME280_temperature;BME280_humidity;BME280_pressure;Samples;Min_cycle;Max_cycle;Signal;HPM_P1;HPM_P2
2022/03/25 00:01:49;;;;;;;33.00;15.70;;;6.70;99.90;;;;;;4392675;32;20181;-69
2022/03/25 00:04:17;;;;;;;30.27;14.47;;;6.60;99.90;;;;;;4379878;32;20179;-69
2022/03/25 00:06:45;;;;;;;34.17;14.67;;;6.60;99.90;;;;;;4392556;32;20548;-69
2022/03/25 00:09:12;;;;;;;30.80;15.40;;;6.60;99.90;;;;;;4381631;32;20186;-69
2022/03/25 00:11:40;;;;;;;35.37;15.20;;;6.70;99.90;;;;;;4380231;32;20585;-69
2022/03/25 00:14:09;;;;;;;28.10;14.03;;;6.60;99.90;;;;;;4393436;32;20471;-69
2022/03/25 00:16:37;;;;;;;26.20;13.07;;;6.60;99.90;;;;;;4379772;32;20646;-69
2022/03/25 00:19:05;;;;;;;30.23;14.73;;;6.60;99.90;;;;;;4391951;32;20581;-69
2022/03/25 00:21:35;;;;;;;29.00;14.90;;;6.60;99.90;;;;;;4379882;32;20180;-68
2022/03/25 00:24:03;;;;;;;36.47;16.60;;;6.50;99.90;;;;;;4380444;32;20220;-69
2022/03/25 00:26:30;;;;;;;30.40;15.67;;;6.50;99.90;;;;;;4397210;32;20157;-69
2022/03/25 00:28:58;;;;;;;32.50;15.63;;;6.50;99.90;;;;;;4439307;32;20179;-69
2022/03/25 00:31:26;;;;;;;30.97;15.73;;;6.50;99.90;;;;;;4441191;32;20192;-69
2022/03/25 00:33:54;;;;;;;35.73;16.80;;;6.50;99.90;;;;;;4438743;32;20197;-69
2022/03/25 00:36:23;;;;;;;32.10;16.30;;;6.50;99.90;;;;;;4439408;32;20245;-69
2022/03/25 00:38:56;;;;;;;31.40;14.97;;;6.40;99.90;;;;;;4438616;32;20173;-69
2022/03/25 00:41:39;;;;;;;30.80;15.63;;;6.40;99.90;;;;;;4439355;32;20186;-69
2022/03/25 00:44:07;;;;;;;31.30;14.93;;;6.40;99.90;;;;;;4439053;32;20223;-69
2022/03/25 00:46:34;;;;;;;31.67;14.07;;;6.40;99.90;;;;;;4440128;32;20175;-69
2022/03/25 00:49:04;;;;;;;25.83;12.57;;;6.40;99.90;;;;;;4427809;32;20189;-68
2022/03/25 00:51:31;;;;;;;25.10;12.03;;;6.30;99.90;;;;;;4437914;32;20450;-69
2022/03/25 00:53:59;;;;;;;25.63;12.50;;;6.30;99.90;;;;;;4439118;32;20178;-69
2022/03/25 00:56:26;;;;;;;23.40;11.07;;;6.30;99.90;;;;;;4438258;32;20180;-68
2022/03/25 00:58:53;;;;;;;27.70;11.97;;;6.30;99.90;;;;;;4439021;32;20195;-69
2022/03/25 01:01:21;;;;;;;26.80;13.43;;;6.30;99.90;;;;;;4438545;32;20171;-68
2022/03/25 01:03:49;;;;;;;26.53;13.73;;;6.30;99.90;;;;;;4438030;32;20190;-68
2022/03/25 01:06:22;;;;;;;27.80;14.80;;;6.30;99.90;;;;;;4438124;32;20170;-68
2022/03/25 01:08:49;;;;;;;28.97;14.93;;;6.20;99.90;;;;;;4438240;32;20549;-69
2022/03/25 01:11:17;;;;;;;28.30;14.57;;;6.20;99.90;;;;;;4438324;32;20613;-69
2022/03/25 01:13:45;;;;;;;28.63;14.93;;;6.20;99.90;;;;;;4438845;32;20203;-69
2022/03/25 01:16:13;;;;;;;32.03;15.80;;;6.10;99.90;;;;;;4438709;32;20435;-69
2022/03/25 01:18:40;;;;;;;26.10;13.20;;;6.10;99.90;;;;;;4438810;32;20511;-68
2022/03/25 01:21:07;;;;;;;24.97;12.27;;;6.10;99.90;;;;;;4438235;32;20209;-69
2022/03/25 01:23:35;;;;;;;23.97;12.10;;;6.10;99.90;;;;;;4438791;32;20172;-69
2022/03/25 01:26:03;;;;;;;22.40;11.00;;;6.10;99.90;;;;;;4439712;32;20236;-69
2022/03/25 01:28:34;;;;;;;22.53;10.00;;;6.00;99.90;;;;;;4438449;32;20189;-69
2022/03/25 01:31:03;;;;;;;21.23;10.50;;;6.00;99.90;;;;;;4438684;32;20169;-69
2022/03/25 01:33:30;;;;;;;20.70;9.60;;;6.00;99.90;;;;;;4438279;32;20182;-69
2022/03/25 01:35:57;;;;;;;19.33;9.47;;;6.00;99.40;;;;;;4438621;32;20578;-69
2022/03/25 01:38:27;;;;;;;20.37;9.57;;;6.00;98.90;;;;;;4438412;32;20508;-69
2022/03/25 01:40:55;;;;;;;22.67;10.00;;;6.00;98.40;;;;;;4438386;32;20250;-68
2022/03/25 01:43:22;;;;;;;18.53;8.77;;;5.90;98.70;;;;;;4437910;32;20189;-68
2022/03/25 01:45:50;;;;;;;19.80;10.63;;;5.90;98.00;;;;;;4438485;32;20185;-68
2022/03/25 01:48:18;;;;;;;22.17;9.60;;;5.90;98.20;;;;;;4437963;32;20175;-68
2022/03/25 01:50:47;;;;;;;18.67;8.57;;;5.90;97.90;;;;;;4439561;32;20214;-68
2022/03/25 01:53:18;;;;;;;20.43;9.50;;;5.90;96.70;;;;;;4439393;32;20182;-68
2022/03/25 01:55:58;;;;;;;18.60;8.67;;;5.90;96.40;;;;;;4439778;32;20161;-69
2022/03/25 01:58:27;;;;;;;21.20;10.53;;;5.90;96.80;;;;;;4438439;32;20504;-69
2022/03/25 02:01:01;;;;;;;28.80;14.40;;;5.90;96.90;;;;;;4439150;32;20580;-69
2022/03/25 02:03:28;;;;;;;28.10;11.97;;;5.80;99.90;;;;;;4437405;32;20585;-69
2022/03/25 02:05:56;;;;;;;30.07;14.23;;;5.80;99.90;;;;;;4437827;32;20237;-69
2022/03/25 02:08:32;;;;;;;29.63;14.10;;;5.70;99.90;;;;;;4440519;32;20146;-69
2022/03/25 02:11:12;;;;;;;34.43;14.93;;;5.70;99.90;;;;;;4440418;32;20138;-68
2022/03/25 02:13:45;;;;;;;29.83;14.73;;;5.60;99.90;;;;;;4438436;32;20501;-69
2022/03/25 02:16:19;;;;;;;29.93;14.50;;;5.50;99.90;;;;;;4439351;32;20469;-68
2022/03/25 02:19:24;;;;;;;25.73;13.93;;;5.40;99.90;;;;;;4437544;32;20223;-68
2022/03/25 02:21:53;;;;;;;34.97;15.60;;;5.40;99.90;;;;;;4438681;32;20170;-68
2022/03/25 02:24:20;;;;;;;34.47;16.53;;;5.40;99.90;;;;;;4437405;32;20174;-69
2022/03/25 02:26:51;;;;;;;33.53;16.70;;;5.30;99.90;;;;;;4437362;32;20228;-69
2022/03/25 02:29:25;;;;;;;34.47;16.53;;;5.20;99.90;;;;;;4437722;32;20228;-71
2022/03/25 02:31:55;;;;;;;30.97;15.77;;;5.20;99.90;;;;;;4438306;32;20592;-72
2022/03/25 02:34:24;;;;;;;33.53;15.90;;;5.00;99.90;;;;;;4439888;32;20166;-72
2022/03/25 02:36:52;;;;;;;33.83;17.37;;;4.90;99.90;;;;;;4439013;32;20181;-71
2022/03/25 02:39:40;;;;;;;37.77;16.23;;;4.90;99.90;;;;;;4432939;32;20185;-72
2022/03/25 02:42:20;;;;;;;33.40;16.30;;;4.80;99.90;;;;;;4438708;32;20212;-72
2022/03/25 02:44:53;;;;;;;35.40;17.20;;;4.80;99.90;;;;;;4440235;32;20415;-72
2022/03/25 02:47:25;;;;;;;34.80;16.43;;;4.70;99.90;;;;;;4440694;32;20205;-72
2022/03/25 02:49:52;;;;;;;32.93;16.50;;;4.70;99.90;;;;;;4440596;32;20248;-72
2022/03/25 02:52:27;;;;;;;36.73;17.47;;;4.60;99.90;;;;;;4440166;32;20187;-73
2022/03/25 02:55:12;;;;;;;33.97;16.60;;;4.60;99.90;;;;;;4440289;32;20168;-72
2022/03/25 02:57:46;;;;;;;34.67;16.27;;;4.50;99.90;;;;;;4439839;32;20540;-72
2022/03/25 03:00:13;;;;;;;34.47;16.47;;;4.50;99.90;;;;;;4440535;32;20207;-72
2022/03/25 03:03:00;;;;;;;33.23;16.97;;;4.40;99.90;;;;;;4440795;32;20199;-72
2022/03/25 03:05:40;;;;;;;35.33;17.23;;;4.40;99.90;;;;;;4440676;32;20460;-72
2022/03/25 03:08:27;;;;;;;37.63;17.53;;;4.30;99.90;;;;;;4441491;32;20270;-71
2022/03/25 03:11:24;;;;;;;33.40;16.53;;;4.30;99.90;;;;;;4440349;32;20177;-72
2022/03/25 03:13:54;;;;;;;36.37;16.90;;;4.10;99.90;;;;;;4441987;32;20460;-72
2022/03/25 03:16:22;;;;;;;33.83;17.23;;;4.10;99.90;;;;;;4440089;32;20189;-71
2022/03/25 03:18:57;;;;;;;38.40;17.60;;;4.00;99.90;;;;;;4441609;32;20195;-71
2022/03/25 03:21:24;;;;;;;41.67;17.83;;;3.90;99.90;;;;;;4440816;32;20488;-72
2022/03/25 03:23:53;;;;;;;40.90;17.33;;;3.80;99.90;;;;;;4441253;32;20216;-72
2022/03/25 03:26:38;;;;;;;37.00;17.73;;;3.90;99.90;;;;;;4440862;32;20181;-71
2022/03/25 03:29:09;;;;;;;35.67;16.80;;;3.90;99.90;;;;;;4441336;32;20216;-72
2022/03/25 03:31:39;;;;;;;38.57;17.90;;;3.90;99.90;;;;;;4441108;32;20263;-72
2022/03/25 03:34:07;;;;;;;36.77;17.83;;;3.80;99.90;;;;;;4441401;32;20185;-71
2022/03/25 03:36:38;;;;;;;34.27;17.13;;;3.70;99.90;;;;;;4439741;32;20177;-72
2022/03/25 03:39:12;;;;;;;35.80;16.80;;;3.60;99.90;;;;;;4442143;32;20194;-72
2022/03/25 03:41:43;;;;;;;38.60;17.40;;;3.60;99.90;;;;;;4439557;32;20187;-72
2022/03/25 03:44:10;;;;;;;37.27;17.90;;;3.70;99.90;;;;;;4440113;32;20217;-72
2022/03/25 03:46:38;;;;;;;35.37;17.80;;;3.60;99.90;;;;;;4439755;32;20218;-72
2022/03/25 03:49:06;;;;;;;36.33;17.40;;;3.60;99.90;;;;;;4441006;32;20230;-72
2022/03/25 03:51:36;;;;;;;33.27;15.83;;;3.60;99.90;;;;;;4440166;32;20169;-72
2022/03/25 03:54:32;;;;;;;33.33;15.60;;;3.60;99.90;;;;;;4440658;32;20197;-72
2022/03/25 03:57:09;;;;;;;33.03;15.83;;;3.60;99.90;;;;;;4368686;32;20202;-72
2022/03/25 03:59:36;;;;;;;33.63;16.27;;;3.60;99.90;;;;;;4380345;32;20165;-71
2022/03/25 04:02:04;;;;;;;34.07;15.73;;;3.60;99.90;;;;;;4380017;32;20230;-71
2022/03/25 04:04:31;;;;;;;31.53;15.77;;;3.60;99.90;;;;;;4380898;32;20188;-71
2022/03/25 04:06:58;;;;;;;30.63;15.43;;;3.70;99.90;;;;;;4380335;32;20255;-71
2022/03/25 04:09:36;;;;;;;32.70;15.73;;;3.60;99.90;;;;;;4380999;32;20250;-72
2022/03/25 04:12:08;;;;;;;31.63;14.77;;;3.70;99.90;;;;;;4380159;32;20202;-71
2022/03/25 04:14:39;;;;;;;29.70;14.97;;;3.70;99.90;;;;;;4380003;32;20215;-71
2022/03/25 04:17:07;;;;;;;33.10;15.50;;;3.70;99.90;;;;;;4380391;32;20190;-71
2022/03/25 04:19:34;;;;;;;33.07;15.50;;;3.70;99.90;;;;;;4381333;32;20249;-71
2022/03/25 04:22:08;;;;;;;32.13;15.30;;;3.70;99.90;;;;;;4392539;32;20407;-72
2022/03/25 04:24:36;;;;;;;32.90;15.50;;;3.70;99.90;;;;;;4392637;32;20174;-71
2022/03/25 04:27:04;;;;;;;29.00;14.33;;;3.70;99.90;;;;;;4380135;32;20169;-71
2022/03/25 04:29:31;;;;;;;35.30;15.20;;;3.70;99.90;;;;;;4380306;32;20223;-71
2022/03/25 04:31:58;;;;;;;27.73;14.60;;;3.70;99.90;;;;;;4393428;32;20183;-71
2022/03/25 04:34:26;;;;;;;28.13;14.00;;;3.70;99.90;;;;;;4416708;32;20167;-71
2022/03/25 04:36:54;;;;;;;30.73;15.53;;;3.80;99.90;;;;;;4439595;32;20179;-72
2022/03/25 04:39:32;;;;;;;30.90;14.57;;;3.80;99.90;;;;;;4438621;32;20254;-71
2022/03/25 04:41:59;;;;;;;32.93;15.10;;;3.90;99.90;;;;;;4439814;32;20203;-71
2022/03/25 04:44:27;;;;;;;29.87;14.57;;;3.80;99.90;;;;;;4441583;32;20148;-71
2022/03/25 04:47:12;;;;;;;31.17;14.83;;;3.90;99.90;;;;;;4439608;32;20171;-71
2022/03/25 04:49:41;;;;;;;31.93;15.30;;;3.90;99.90;;;;;;4439511;32;20185;-71
2022/03/25 04:52:29;;;;;;;30.30;14.50;;;3.90;99.90;;;;;;4440251;32;20233;-71
2022/03/25 04:54:56;;;;;;;37.40;15.23;;;3.90;99.90;;;;;;4439142;32;20181;-71
2022/03/25 04:57:24;;;;;;;33.20;15.47;;;3.90;99.90;;;;;;4439512;32;20205;-71
2022/03/25 04:59:52;;;;;;;31.23;14.70;;;3.90;99.90;;;;;;4438888;32;20177;-72
2022/03/25 05:02:19;;;;;;;35.40;15.53;;;4.00;99.90;;;;;;4438578;32;20183;-71
2022/03/25 05:04:46;;;;;;;32.93;15.43;;;3.90;99.90;;;;;;4438692;32;20410;-71
2022/03/25 05:07:18;;;;;;;29.20;14.60;;;4.00;99.90;;;;;;4439502;32;20177;-71
2022/03/25 05:09:45;;;;;;;31.40;14.53;;;4.00;99.90;;;;;;4440022;32;20498;-71
2022/03/25 05:12:13;;;;;;;32.27;16.03;;;4.00;99.90;;;;;;4438652;32;20180;-71
2022/03/25 05:14:41;;;;;;;33.20;15.50;;;4.10;99.90;;;;;;4438846;32;20178;-71
2022/03/25 05:17:09;;;;;;;31.23;14.90;;;4.00;99.90;;;;;;4426756;32;20562;-71
2022/03/25 05:19:37;;;;;;;33.93;15.80;;;4.00;99.90;;;;;;4438784;32;20192;-71
2022/03/25 05:22:06;;;;;;;31.13;15.23;;;4.00;99.90;;;;;;4438300;32;20200;-71
2022/03/25 05:25:06;;;;;;;31.43;15.20;;;4.10;99.90;;;;;;4438596;32;20183;-71
2022/03/25 05:28:02;;;;;;;27.50;15.07;;;4.10;99.90;;;;;;4436597;32;20173;-71
2022/03/25 05:30:35;;;;;;;34.83;15.90;;;4.20;99.90;;;;;;4379113;32;20441;-71
2022/03/25 05:33:05;;;;;;;32.73;15.37;;;4.20;99.90;;;;;;4391842;32;20223;-71
2022/03/25 05:35:33;;;;;;;32.97;15.33;;;4.20;99.90;;;;;;4379418;32;20494;-71
2022/03/25 05:38:12;;;;;;;32.47;15.30;;;4.30;99.90;;;;;;4379628;32;20416;-72
2022/03/25 05:41:29;;;;;;;29.13;14.63;;;4.30;99.90;;;;;;4374724;32;20508;-71
2022/03/25 05:43:56;;;;;;;31.53;15.73;;;4.30;99.90;;;;;;4391554;32;20488;-72
2022/03/25 05:46:44;;;;;;;36.97;15.87;;;4.40;99.90;;;;;;4378251;32;20526;-71
2022/03/25 05:49:12;;;;;;;35.07;15.40;;;4.50;99.90;;;;;;4379002;32;20202;-71
2022/03/25 05:51:40;;;;;;;36.13;16.13;;;4.50;99.90;;;;;;4379056;32;20542;-71
2022/03/25 05:54:52;;;;;;;31.63;15.17;;;4.60;99.90;;;;;;4379649;32;20178;-72
2022/03/25 05:57:23;;;;;;;33.93;15.37;;;4.70;99.90;;;;;;4375784;32;20170;-72
2022/03/25 05:59:55;;;;;;;37.37;15.37;;;4.70;99.90;;;;;;4392326;32;20167;-71
2022/03/25 06:02:50;;;;;;;32.27;14.73;;;4.80;99.90;;;;;;4391771;32;20152;-72
2022/03/25 06:05:18;;;;;;;31.47;14.70;;;4.90;99.90;;;;;;4379494;32;20253;-72
2022/03/25 06:07:48;;;;;;;34.70;15.07;;;5.00;99.90;;;;;;4417833;32;20240;-72
2022/03/25 06:10:18;;;;;;;32.10;15.30;;;5.20;99.90;;;;;;4438814;32;20197;-72
2022/03/25 06:12:45;;;;;;;35.37;14.93;;;5.30;99.90;;;;;;4439697;32;20200;-71
2022/03/25 06:15:13;;;;;;;37.47;15.03;;;5.40;99.90;;;;;;4437587;32;20542;-72
2022/03/25 06:17:48;;;;;;;28.37;14.80;;;5.50;99.90;;;;;;4441365;32;20154;-72
2022/03/25 06:20:23;;;;;;;30.93;14.87;;;5.60;99.90;;;;;;4442148;32;20164;-71
2022/03/25 06:22:50;;;;;;;33.87;15.23;;;5.80;99.90;;;;;;4442158;32;20162;-72
2022/03/25 06:25:18;;;;;;;29.03;14.43;;;6.00;99.90;;;;;;4440820;32;20185;-72
2022/03/25 06:27:49;;;;;;;30.83;15.23;;;6.10;99.90;;;;;;4442637;32;20151;-71
2022/03/25 06:30:17;;;;;;;30.27;15.20;;;6.40;99.90;;;;;;4442178;32;20205;-71
2022/03/25 06:32:45;;;;;;;32.23;14.90;;;6.50;99.90;;;;;;4441677;32;20240;-71
2022/03/25 06:35:13;;;;;;;29.63;14.77;;;6.60;99.90;;;;;;4440556;32;20174;-72
2022/03/25 06:37:41;;;;;;;29.07;14.73;;;6.80;99.90;;;;;;4440764;32;20197;-71
2022/03/25 06:40:09;;;;;;;33.30;15.23;;;6.80;99.90;;;;;;4440575;32;20185;-71
2022/03/25 06:42:41;;;;;;;36.70;16.10;;;6.80;99.90;;;;;;4440006;32;20213;-71
2022/03/25 06:45:10;;;;;;;33.03;15.33;;;6.90;99.90;;;;;;4440606;32;20532;-71
2022/03/25 06:47:38;;;;;;;34.53;15.83;;;7.10;99.90;;;;;;4440553;32;20192;-72
2022/03/25 06:50:06;;;;;;;30.77;15.30;;;7.10;99.90;;;;;;4441010;32;20227;-72
2022/03/25 06:52:34;;;;;;;32.93;14.87;;;7.20;99.90;;;;;;4440108;32;20196;-72
2022/03/25 06:55:27;;;;;;;33.77;16.70;;;7.20;99.90;;;;;;4397655;32;20172;-72
2022/03/25 06:57:54;;;;;;;37.30;15.67;;;7.30;99.90;;;;;;4396404;32;20236;-72
2022/03/25 07:00:24;;;;;;;33.57;15.57;;;7.40;99.90;;;;;;4396941;32;20434;-72
2022/03/25 07:02:52;;;;;;;32.97;15.10;;;7.50;99.90;;;;;;4397031;32;20190;-72
2022/03/25 07:05:21;;;;;;;31.47;14.80;;;7.60;99.90;;;;;;4397550;32;20197;-72
2022/03/25 07:07:49;;;;;;;33.97;15.83;;;7.70;99.90;;;;;;4396877;32;20220;-72
2022/03/25 07:10:22;;;;;;;33.80;16.03;;;7.80;99.90;;;;;;4395710;32;20202;-72
2022/03/25 07:12:53;;;;;;;30.93;14.77;;;7.90;99.90;;;;;;4409561;32;20536;-72
2022/03/25 07:15:23;;;;;;;30.57;14.17;;;8.00;99.90;;;;;;4408872;32;20522;-72
2022/03/25 07:17:54;;;;;;;34.33;15.40;;;8.10;99.90;;;;;;4395596;32;20201;-72
2022/03/25 07:20:25;;;;;;;30.20;15.70;;;8.20;99.90;;;;;;4395057;32;20195;-72
2022/03/25 07:22:53;;;;;;;30.77;15.27;;;8.30;99.90;;;;;;4408909;32;20170;-72
2022/03/25 07:25:25;;;;;;;33.23;14.90;;;8.30;99.90;;;;;;4395266;32;20174;-72
2022/03/25 07:27:52;;;;;;;29.73;13.60;;;8.50;99.30;;;;;;4395566;32;20167;-71
2022/03/25 07:30:20;;;;;;;29.63;14.60;;;8.60;97.30;;;;;;4396100;32;20423;-72
2022/03/25 07:32:48;;;;;;;31.17;14.50;;;8.80;97.00;;;;;;4422002;32;20182;-72
2022/03/25 07:35:17;;;;;;;28.73;14.43;;;8.90;96.60;;;;;;4441250;32;20142;-72
2022/03/25 07:37:50;;;;;;;34.03;14.80;;;9.00;96.40;;;;;;4441065;32;20130;-72
2022/03/25 07:40:27;;;;;;;30.40;14.50;;;9.10;95.10;;;;;;4440120;32;20197;-72
2022/03/25 07:42:55;;;;;;;27.67;13.93;;;9.30;94.50;;;;;;4440134;32;20246;-72
2022/03/25 07:45:22;;;;;;;28.10;14.03;;;9.40;93.70;;;;;;4440048;32;20170;-72
2022/03/25 07:47:51;;;;;;;23.70;12.77;;;9.50;93.50;;;;;;4439433;32;20224;-72
2022/03/25 07:50:21;;;;;;;26.90;12.37;;;9.60;91.50;;;;;;4439342;32;20194;-72
2022/03/25 07:52:50;;;;;;;26.00;12.00;;;9.70;88.40;;;;;;4440002;32;20228;-72
2022/03/25 07:55:19;;;;;;;22.27;10.87;;;9.70;88.00;;;;;;4439038;32;20170;-72
2022/03/25 07:57:48;;;;;;;23.80;12.23;;;9.80;86.80;;;;;;4440247;32;20178;-72
2022/03/25 08:00:16;;;;;;;26.50;13.03;;;10.00;86.00;;;;;;4426713;32;20239;-72
2022/03/25 08:02:46;;;;;;;24.47;12.00;;;10.10;86.30;;;;;;4440221;32;20139;-72
2022/03/25 08:05:14;;;;;;;32.80;13.67;;;10.30;86.20;;;;;;4439299;32;20457;-72
2022/03/25 08:07:54;;;;;;;32.73;14.10;;;10.40;86.50;;;;;;4439196;32;20446;-72
2022/03/25 08:10:24;;;;;;;32.43;14.80;;;10.40;84.20;;;;;;4440000;32;20413;-72
2022/03/25 08:12:53;;;;;;;30.47;14.60;;;10.20;84.70;;;;;;4440076;32;20216;-72
2022/03/25 08:15:21;;;;;;;27.77;14.50;;;10.40;84.40;;;;;;4440331;32;20168;-72
2022/03/25 08:18:01;;;;;;;31.13;14.90;;;10.50;83.80;;;;;;4440033;32;20186;-71
2022/03/25 08:20:40;;;;;;;30.43;14.60;;;10.60;81.80;;;;;;4439351;32;20231;-70
2022/03/25 08:23:11;;;;;;;31.00;14.73;;;10.60;81.40;;;;;;4438633;32;20251;-72
2022/03/25 08:28:28;;;;;;;33.83;14.67;;;11.00;79.70;;;;;;4438964;32;20178;-72
2022/03/25 08:31:00;;;;;;;35.53;15.53;;;11.50;77.70;;;;;;4439622;32;20222;-70
2022/03/25 08:33:27;;;;;;;36.80;14.97;;;12.20;76.00;;;;;;4439036;32;20235;-71
2022/03/25 08:35:54;;;;;;;33.47;15.63;;;12.70;72.50;;;;;;4437974;32;20201;-70
2022/03/25 08:38:21;;;;;;;33.63;15.23;;;13.30;69.70;;;;;;4439538;32;20166;-71
2022/03/25 08:40:48;;;;;;;32.17;15.37;;;13.80;66.40;;;;;;4438097;32;20221;-71
2022/03/25 08:43:35;;;;;;;36.00;16.03;;;14.00;64.90;;;;;;4439648;32;20169;-71
2022/03/25 08:46:03;;;;;;;38.00;17.00;;;14.30;63.80;;;;;;4438108;32;20045;-69
2022/03/25 08:48:31;;;;;;;35.80;15.97;;;14.60;62.10;;;;;;4440298;32;20217;-69
2022/03/25 08:50:58;;;;;;;33.47;15.47;;;15.00;61.20;;;;;;4439076;32;20555;-70
2022/03/25 08:53:25;;;;;;;35.83;15.30;;;15.60;59.20;;;;;;4440652;32;20150;-70
2022/03/25 08:55:58;;;;;;;35.03;14.90;;;15.40;59.50;;;;;;4438307;32;20378;-70
2022/03/25 08:58:25;;;;;;;28.33;14.43;;;15.90;58.90;;;;;;4438373;32;20233;-70
2022/03/25 09:00:52;;;;;;;31.60;13.87;;;16.30;56.70;;;;;;4439504;32;20175;-70
2022/03/25 09:03:19;;;;;;;33.90;15.17;;;16.70;56.50;;;;;;4438395;32;20567;-70
2022/03/25 09:05:47;;;;;;;37.97;16.67;;;17.30;54.60;;;;;;4438936;32;20186;-69
2022/03/25 09:08:15;;;;;;;30.87;14.40;;;17.70;53.30;;;;;;4438766;32;20215;-69
2022/03/25 09:10:42;;;;;;;33.27;14.30;;;18.20;52.60;;;;;;4439607;32;20450;-68
2022/03/25 09:13:08;;;;;;;29.57;14.13;;;18.50;51.80;;;;;;4438612;32;20278;-70
2022/03/25 09:15:35;;;;;;;28.47;13.53;;;18.70;51.10;;;;;;4440319;32;20257;-70
2022/03/25 09:18:03;;;;;;;24.13;12.33;;;18.80;51.20;;;;;;4438834;32;20190;-69
2022/03/25 09:20:33;;;;;;;25.33;13.00;;;19.20;50.30;;;;;;4439081;32;20183;-69
2022/03/25 09:23:00;;;;;;;29.67;13.77;;;19.50;48.90;;;;;;4438577;32;20211;-69
2022/03/25 09:25:30;;;;;;;26.77;14.40;;;19.50;48.50;;;;;;4437855;32;20170;-69
2022/03/25 09:27:57;;;;;;;31.33;14.63;;;19.60;47.70;;;;;;4439232;32;20217;-69
2022/03/25 09:30:24;;;;;;;27.80;13.57;;;19.10;48.10;;;;;;4438780;32;20163;-72
2022/03/25 09:33:07;;;;;;;25.60;13.27;;;18.20;48.80;;;;;;4439088;32;20462;-69
2022/03/25 09:35:41;;;;;;;27.23;13.97;;;18.60;50.30;;;;;;4439258;32;20222;-69
2022/03/25 09:38:08;;;;;;;26.63;13.67;;;19.30;48.20;;;;;;4441541;32;20405;-69
2022/03/25 09:40:41;;;;;;;29.93;14.20;;;19.50;47.80;;;;;;4438167;32;20201;-69
2022/03/25 09:43:08;;;;;;;29.50;14.47;;;19.40;47.80;;;;;;4437499;32;20190;-68
2022/03/25 09:45:36;;;;;;;27.03;13.70;;;19.20;47.80;;;;;;4439728;32;20469;-68
2022/03/25 09:48:05;;;;;;;27.80;13.87;;;18.60;48.90;;;;;;4437700;32;20183;-68
2022/03/25 09:50:36;;;;;;;25.03;13.10;;;18.90;48.50;;;;;;4439369;32;20220;-68
2022/03/25 09:53:05;;;;;;;27.90;13.87;;;19.10;48.00;;;;;;4437377;32;20448;-67
2022/03/25 09:55:46;;;;;;;28.33;13.40;;;19.40;47.50;;;;;;4438233;32;20166;-68
2022/03/25 09:58:22;;;;;;;25.30;13.00;;;19.90;47.20;;;;;;4425581;32;20169;-69
2022/03/25 10:00:51;;;;;;;26.27;13.10;;;19.90;46.80;;;;;;4438647;32;20399;-68
2022/03/25 10:03:31;;;;;;;30.60;14.37;;;19.80;46.30;;;;;;4437553;32;20222;-68
2022/03/25 10:06:01;;;;;;;26.73;12.00;;;20.00;46.90;;;;;;4438138;32;20554;-67
2022/03/25 10:08:38;;;;;;;27.57;12.23;;;20.50;44.50;;;;;;4437641;32;20551;-68
2022/03/25 10:11:26;;;;;;;29.23;13.60;;;21.10;43.80;;;;;;4438747;32;20182;-67
2022/03/25 10:14:15;;;;;;;26.40;12.23;;;20.80;43.80;;;;;;4438213;32;20396;-67
2022/03/25 10:16:45;;;;;;;22.93;12.43;;;20.10;43.70;;;;;;4437427;32;20540;-67
2022/03/25 10:19:17;;;;;;;27.33;13.07;;;20.40;43.90;;;;;;4438994;32;20639;-67
2022/03/25 10:21:59;;;;;;;23.83;13.33;;;20.00;44.70;;;;;;4439501;32;20138;-67
2022/03/25 10:24:43;;;;;;;25.30;13.63;;;19.80;44.00;;;;;;4437703;32;20531;-68
2022/03/25 10:27:17;;;;;;;25.53;13.53;;;19.60;45.10;;;;;;4437437;32;20205;-68
2022/03/25 10:29:46;;;;;;;27.93;13.47;;;20.40;45.50;;;;;;4437100;32;20178;-68
2022/03/25 10:32:20;;;;;;;27.50;13.13;;;21.20;44.50;;;;;;4438327;32;20175;-68
2022/03/25 10:35:01;;;;;;;26.93;13.47;;;21.60;42.30;;;;;;4437112;32;20445;-68
2022/03/25 10:37:28;;;;;;;29.60;14.33;;;21.80;42.20;;;;;;4438569;32;20169;-69
2022/03/25 10:39:55;;;;;;;29.63;14.17;;;21.90;41.80;;;;;;4438426;32;20163;-67
2022/03/25 10:42:23;;;;;;;26.23;12.93;;;21.90;41.00;;;;;;4438612;32;20427;-68
2022/03/25 10:44:50;;;;;;;25.60;13.10;;;21.40;42.20;;;;;;4439341;32;20435;-68
2022/03/25 10:47:17;;;;;;;25.57;13.00;;;20.90;41.90;;;;;;4438932;32;20142;-67
2022/03/25 10:49:46;;;;;;;27.60;13.53;;;20.50;43.70;;;;;;4438639;32;20190;-67
2022/03/25 10:52:23;;;;;;;26.77;13.00;;;21.30;43.60;;;;;;4436963;32;20174;-67
2022/03/25 10:55:21;;;;;;;27.47;13.17;;;21.60;41.80;;;;;;4437127;32;20414;-68
2022/03/25 10:57:52;;;;;;;22.73;11.87;;;21.70;41.70;;;;;;4437515;32;20256;-67
2022/03/25 11:00:21;;;;;;;24.93;13.43;;;22.40;41.60;;;;;;4439619;32;20395;-67
2022/03/25 11:02:48;;;;;;;25.97;14.10;;;22.80;40.30;;;;;;4437239;32;20597;-68
2022/03/25 11:05:16;;;;;;;30.37;13.30;;;22.70;39.90;;;;;;4441480;32;20150;-67
2022/03/25 11:07:44;;;;;;;24.90;12.93;;;22.70;39.90;;;;;;4440602;32;20532;-68
2022/03/25 11:10:13;;;;;;;28.12;13.75;;;23.50;40.00;;;;;;4441385;32;20155;-68
2022/03/25 11:12:48;;;;;;;31.58;15.07;;;23.80;38.60;;;;;;4441291;32;20212;-67
2022/03/25 11:15:18;;;;;;;25.95;13.62;;;23.00;39.00;;;;;;4441913;32;20166;-66
2022/03/25 11:17:46;;;;;;;25.70;14.13;;;23.30;39.30;;;;;;4442271;32;20150;-68
2022/03/25 11:20:15;;;;;;;26.10;13.68;;;23.10;38.70;;;;;;4439748;32;20208;-68
2022/03/25 11:22:46;;;;;;;24.35;14.02;;;23.10;39.60;;;;;;4442122;32;20189;-66
2022/03/25 11:25:18;;;;;;;24.25;13.45;;;23.10;38.60;;;;;;4440273;32;20162;-67
2022/03/25 11:27:59;;;;;;;27.13;15.43;;;22.80;39.20;;;;;;4440846;32;20180;-67
2022/03/25 11:30:35;;;;;;;25.15;14.30;;;22.60;39.20;;;;;;4439738;32;20174;-68
2022/03/25 11:33:04;;;;;;;24.85;14.27;;;22.80;40.00;;;;;;4426650;32;20209;-68
2022/03/25 11:35:41;;;;;;;25.52;14.25;;;23.10;39.30;;;;;;4441073;32;20194;-68
2022/03/25 11:38:13;;;;;;;28.52;14.32;;;24.30;38.40;;;;;;4440225;32;20181;-68
2022/03/25 11:40:45;;;;;;;25.85;14.20;;;24.80;37.80;;;;;;4441661;32;20213;-68
2022/03/25 11:43:16;;;;;;;26.02;14.05;;;25.60;35.50;;;;;;4439469;32;20217;-69
2022/03/25 11:45:45;;;;;;;21.87;13.77;;;26.60;35.00;;;;;;4440428;32;20181;-68
2022/03/25 11:48:12;;;;;;;24.73;13.90;;;27.00;33.10;;;;;;4439467;32;20273;-69
2022/03/25 11:50:45;;;;;;;23.42;12.65;;;27.40;33.80;;;;;;4440418;32;20204;-69
2022/03/25 11:53:12;;;;;;;25.20;13.88;;;28.10;31.60;;;;;;4439923;32;20212;-69
2022/03/25 11:56:15;;;;;;;24.77;14.13;;;29.00;30.70;;;;;;4439726;32;20179;-69
2022/03/25 11:59:00;;;;;;;33.10;14.48;;;28.50;30.30;;;;;;4379408;32;20187;-70
2022/03/25 12:01:29;;;;;;;23.52;13.88;;;28.70;30.00;;;;;;4379651;32;20179;-69
2022/03/25 12:03:58;;;;;;;23.27;13.30;;;28.00;30.00;;;;;;4380152;32;20195;-68
2022/03/25 12:06:29;;;;;;;24.10;13.40;;;27.40;30.90;;;;;;4380101;32;20225;-70
2022/03/25 12:09:15;;;;;;;25.58;14.90;;;27.60;31.20;;;;;;4379995;32;20455;-68
2022/03/25 12:11:50;;;;;;;23.70;13.85;;;27.50;31.00;;;;;;4377250;32;20191;-71
2022/03/25 12:14:34;;;;;;;24.83;13.35;;;28.00;30.70;;;;;;4365316;32;20241;-72
2022/03/25 12:17:08;;;;;;;26.62;13.73;;;27.90;30.10;;;;;;4364880;32;20183;-72
2022/03/25 12:19:41;;;;;;;24.55;13.43;;;28.60;30.50;;;;;;4377654;32;20230;-72
2022/03/25 12:22:23;;;;;;;23.95;13.35;;;29.50;29.30;;;;;;4365119;32;20199;-72
2022/03/25 12:24:51;;;;;;;23.73;13.52;;;29.00;28.90;;;;;;4364326;32;20184;-72
2022/03/25 12:27:20;;;;;;;23.92;13.70;;;28.80;29.60;;;;;;4377138;32;20168;-72
2022/03/25 12:29:54;;;;;;;24.30;14.38;;;29.00;29.50;;;;;;4366533;32;20207;-72
2022/03/25 12:32:29;;;;;;;24.95;13.70;;;28.20;29.30;;;;;;4408477;32;20200;-72
2022/03/25 12:35:08;;;;;;;24.37;13.95;;;28.40;29.80;;;;;;4438401;32;20193;-72
2022/03/25 12:37:35;;;;;;;21.58;13.73;;;28.20;29.40;;;;;;4439231;32;20437;-72
2022/03/25 12:40:09;;;;;;;22.58;13.57;;;28.70;29.60;;;;;;4439369;32;20190;-72
2022/03/25 12:42:37;;;;;;;22.20;14.02;;;29.10;28.90;;;;;;4439314;32;20231;-72
2022/03/25 12:45:04;;;;;;;23.58;13.32;;;29.40;29.20;;;;;;4438539;32;20200;-72
2022/03/25 12:47:38;;;;;;;22.33;13.07;;;28.90;29.20;;;;;;4438069;32;20182;-73
2022/03/25 12:50:06;;;;;;;22.70;13.85;;;29.10;29.20;;;;;;4440125;32;20166;-72
2022/03/25 12:52:33;;;;;;;22.87;13.35;;;29.90;28.90;;;;;;4439928;32;20503;-72
2022/03/25 12:55:27;;;;;;;25.25;13.75;;;29.80;28.60;;;;;;4438548;32;20182;-69
2022/03/25 12:58:14;;;;;;;23.30;12.57;;;29.40;27.90;;;;;;4437038;32;20182;-68
2022/03/25 13:00:42;;;;;;;21.98;12.75;;;28.30;28.90;;;;;;4438735;32;20273;-68